Terminal Aerodrome Forecast
Issued by NWS Brownsville, TX

Home | Current Version | Previous Version | Text Only | Print | Product List | Glossary On
Versions: 1 2 3 4 5 6 7 8 9 10 11 12 13 14 15 16 17 18 19 20 21 22 23 24 25 26
000
FTUS44 KBRO 270541
TAFHRL
TAF
KHRL 270541Z 2706/2806 00000KT P6SM SCT250
     FM271200 01003KT P6SM VCSH SCT025 BKN035
     FM271600 05005KT P6SM VCTS SCT035CB BKN050 PROB30 2716/2720 3SM
      TSRA BKN030CB
     FM272200 08008KT P6SM SCT040 BKN200
     FM280300 VRB03KT P6SM FEW040 SCT250=

USA.gov is the U.S. government's official web portal to all federal, state and local government web resources and services.